Time;durP1;ratioP1;P1;durP2;ratioP2;P2;SDS_P1;SDS_P2;PMS_P1;PMS_P2;Temp;Humidity;BMP_temperature;BMP_pressure;BME280_temperature;BME280_humidity;BME280_pressure;Samples;Min_cycle;Max_cycle;Signal;HPM_P1;HPM_P2
2023/06/26 00:02:11;;;;;;;12.68;7.70;;;;;;;17.47;99.73;96663.78;4977535;28;20061;-69
2023/06/26 00:04:37;;;;;;;13.00;7.65;;;;;;;17.26;99.52;96655.72;4982951;28;20125;-69
2023/06/26 00:07:05;;;;;;;11.77;8.25;;;;;;;17.11;100.00;96657.84;4981425;28;20042;-67
2023/06/26 00:09:31;;;;;;;11.55;7.40;;;;;;;17.09;100.00;96654.72;4973136;28;20038;-69
2023/06/26 00:11:57;;;;;;;13.02;7.32;;;;;;;17.09;100.00;96661.03;4983283;28;20045;-70
2023/06/26 00:14:22;;;;;;;14.90;8.23;;;;;;;17.12;100.00;96662.19;4977384;28;20554;-69
2023/06/26 00:16:49;;;;;;;10.75;7.63;;;;;;;17.14;100.00;96662.53;4984195;28;20049;-69
2023/06/26 00:19:15;;;;;;;10.27;7.85;;;;;;;17.13;100.00;96666.53;4962477;28;20522;-69
2023/06/26 00:21:40;;;;;;;13.20;8.13;;;;;;;17.10;100.00;96667.34;4983530;28;20054;-68
2023/06/26 00:24:06;;;;;;;14.88;7.85;;;;;;;17.12;100.00;96657.41;4997577;28;20068;-67
2023/06/26 00:26:31;;;;;;;14.95;8.18;;;;;;;17.11;100.00;96663.38;4982298;28;20178;-67
2023/06/26 00:28:57;;;;;;;13.40;8.93;;;;;;;17.09;100.00;96666.56;4982897;28;20050;-71
2023/06/26 00:31:22;;;;;;;11.48;8.35;;;;;;;17.09;100.00;96665.78;4978209;28;20138;-68
2023/06/26 00:33:47;;;;;;;12.60;8.30;;;;;;;17.01;100.00;96676.13;4982438;28;20046;-71
2023/06/26 00:36:14;;;;;;;11.27;8.25;;;;;;;16.99;100.00;96671.00;4976554;28;20042;-70
2023/06/26 00:38:39;;;;;;;12.68;8.63;;;;;;;16.95;100.00;96672.22;4983085;28;20065;-68
2023/06/26 00:41:05;;;;;;;15.60;9.10;;;;;;;16.86;100.00;96675.47;4978219;28;20042;-68
2023/06/26 00:43:30;;;;;;;11.23;7.97;;;;;;;16.87;100.00;96676.25;4981991;28;20443;-70
2023/06/26 00:45:56;;;;;;;12.10;8.50;;;;;;;16.89;100.00;96680.19;4986678;28;20041;-67
2023/06/26 00:48:21;;;;;;;12.93;9.02;;;;;;;16.92;100.00;96681.34;4994866;28;20698;-68
2023/06/26 00:50:46;;;;;;;13.48;9.27;;;;;;;16.97;100.00;96673.38;4983519;28;20038;-69
2023/06/26 00:53:12;;;;;;;13.75;9.20;;;;;;;16.97;100.00;96676.16;4977492;28;20495;-69
2023/06/26 00:55:38;;;;;;;13.20;8.35;;;;;;;17.03;100.00;96681.25;4981855;28;20443;-69
2023/06/26 00:58:03;;;;;;;12.10;8.55;;;;;;;16.99;100.00;96678.50;4978370;28;20034;-66
2023/06/26 01:00:29;;;;;;;13.80;8.32;;;;;;;16.85;100.00;96675.88;4964727;28;20129;-69
2023/06/26 01:02:58;;;;;;;13.68;9.07;;;;;;;16.79;100.00;96679.03;4981485;28;20042;-68
2023/06/26 01:05:25;;;;;;;13.77;9.40;;;;;;;16.75;100.00;96680.28;4976968;28;20447;-68
2023/06/26 01:07:50;;;;;;;13.10;8.98;;;;;;;16.71;100.00;96676.75;4983231;28;20066;-69
2023/06/26 01:10:17;;;;;;;12.23;8.45;;;;;;;16.65;100.00;96683.91;4977276;28;20534;-66
2023/06/26 01:12:43;;;;;;;13.75;9.82;;;;;;;16.66;100.00;96688.25;4982347;28;20053;-68
2023/06/26 01:15:09;;;;;;;13.27;9.18;;;;;;;16.55;100.00;96683.59;4976912;28;20038;-70
2023/06/26 01:17:36;;;;;;;11.43;8.15;;;;;;;16.36;100.00;96686.88;4981978;28;20042;-69
2023/06/26 01:20:06;;;;;;;14.02;9.88;;;;;;;16.10;100.00;96689.03;4981918;28;20046;-69
2023/06/26 01:22:44;;;;;;;12.75;8.43;;;;;;;16.00;100.00;96690.63;4981497;28;20046;-70
2023/06/26 01:25:38;;;;;;;14.18;9.25;;;;;;;16.11;100.00;96679.53;4977194;28;20038;-69
2023/06/26 01:28:05;;;;;;;14.32;9.48;;;;;;;16.25;100.00;96681.44;4979673;28;20443;-69
2023/06/26 01:30:32;;;;;;;16.60;9.45;;;;;;;16.35;100.00;96671.47;4982229;28;20456;-69
2023/06/26 01:32:59;;;;;;;15.68;9.88;;;;;;;16.38;100.00;96679.75;4981902;28;20039;-69
2023/06/26 01:35:26;;;;;;;14.10;9.07;;;;;;;16.36;100.00;96667.53;4977527;28;20572;-69
2023/06/26 01:37:51;;;;;;;14.18;8.55;;;;;;;16.32;100.00;96677.84;4981828;28;20053;-70
2023/06/26 01:40:17;;;;;;;13.52;9.30;;;;;;;16.32;100.00;96677.84;4977500;28;20542;-69
2023/06/26 01:42:42;;;;;;;17.73;10.48;;;;;;;16.00;100.00;96671.31;4981208;28;20053;-69
2023/06/26 01:45:14;;;;;;;15.57;10.05;;;;;;;15.87;100.00;96670.19;4981785;28;20089;-69
2023/06/26 01:47:45;;;;;;;15.18;9.38;;;;;;;15.54;100.00;96679.75;4987193;28;20041;-69
2023/06/26 01:50:16;;;;;;;12.95;9.70;;;;;;;15.48;100.00;96674.69;4989050;28;20104;-68
2023/06/26 01:52:49;;;;;;;13.98;9.90;;;;;;;15.53;100.00;96670.69;4983776;28;20069;-69
2023/06/26 01:55:33;;;;;;;18.15;10.20;;;;;;;15.66;100.00;96680.13;4978960;28;20035;-70
2023/06/26 01:57:59;;;;;;;16.00;9.63;;;;;;;15.85;100.00;96689.16;4982663;28;20133;-69
2023/06/26 02:00:25;;;;;;;15.10;9.63;;;;;;;15.82;100.00;96692.69;4980196;28;20046;-69
2023/06/26 02:02:52;;;;;;;14.63;10.10;;;;;;;15.96;100.00;96686.34;4984870;28;20034;-70
2023/06/26 02:05:17;;;;;;;13.15;9.63;;;;;;;16.12;100.00;96696.91;4979631;28;20081;-70
2023/06/26 02:07:43;;;;;;;15.35;9.88;;;;;;;16.20;100.00;96696.44;4988198;28;20038;-70
2023/06/26 02:10:09;;;;;;;12.75;9.35;;;;;;;16.13;100.00;96696.47;4980294;28;20046;-70
2023/06/26 02:12:36;;;;;;;13.90;9.90;;;;;;;16.04;100.00;96702.47;4984778;28;20081;-70
2023/06/26 02:15:02;;;;;;;16.05;9.43;;;;;;;15.96;100.00;96697.38;4984403;28;20038;-70
2023/06/26 02:17:27;;;;;;;14.68;9.77;;;;;;;15.78;100.00;96698.25;4981600;28;20047;-70
2023/06/26 02:19:53;;;;;;;13.60;8.68;;;;;;;15.75;100.00;96696.28;4985419;28;20411;-70
2023/06/26 02:22:18;;;;;;;16.10;9.73;;;;;;;15.85;100.00;96697.44;4979968;28;20092;-68
2023/06/26 02:24:44;;;;;;;15.95;9.57;;;;;;;15.88;100.00;96704.91;4985103;28;20104;-70
2023/06/26 02:27:10;;;;;;;13.95;9.20;;;;;;;15.91;100.00;96701.34;4980735;28;20073;-69
2023/06/26 02:29:35;;;;;;;15.88;10.13;;;;;;;15.90;100.00;96698.97;4985371;28;20444;-69
2023/06/26 02:32:01;;;;;;;15.77;10.23;;;;;;;15.86;100.00;96699.00;4989396;28;20046;-68
2023/06/26 02:34:27;;;;;;;13.23;9.40;;;;;;;15.89;100.00;96694.66;4984159;28;20136;-69
2023/06/26 02:36:55;;;;;;;13.30;9.63;;;;;;;15.80;100.00;96693.09;4986781;28;20058;-68
2023/06/26 02:39:21;;;;;;;18.60;10.52;;;;;;;15.51;100.00;96695.16;4979330;28;20046;-69
2023/06/26 02:41:46;;;;;;;15.70;10.88;;;;;;;15.11;100.00;96688.94;4984720;28;20530;-68
2023/06/26 02:44:12;;;;;;;14.82;9.75;;;;;;;14.93;100.00;96696.44;4980831;28;20038;-69
2023/06/26 02:46:38;;;;;;;16.05;10.43;;;;;;;14.88;100.00;96692.13;4997828;28;20135;-69
2023/06/26 02:49:03;;;;;;;14.43;9.60;;;;;;;15.03;100.00;96698.41;4983344;28;20039;-66
2023/06/26 02:51:28;;;;;;;13.90;9.60;;;;;;;15.20;100.00;96705.88;4949165;28;20075;-69
2023/06/26 02:53:54;;;;;;;16.00;10.40;;;;;;;15.24;100.00;96701.13;4967348;28;20039;-70
2023/06/26 02:56:19;;;;;;;14.65;8.77;;;;;;;15.23;100.00;96702.34;4956259;28;20137;-69
2023/06/26 02:58:45;;;;;;;13.13;9.68;;;;;;;15.35;100.00;96698.34;4965414;28;20520;-69
2023/06/26 03:01:10;;;;;;;15.30;9.98;;;;;;;15.34;100.00;96701.50;4960182;28;20051;-70
2023/06/26 03:03:40;;;;;;;14.05;9.60;;;;;;;15.36;100.00;96705.47;4964652;28;20496;-69
2023/06/26 03:06:08;;;;;;;;;;;;;;;15.36;100.00;96704.66;4960582;28;20396;-67
2023/06/26 03:08:36;;;;;;;14.32;9.43;;;;;;;15.30;100.00;96704.28;4967750;28;19920;-69
2023/06/26 03:11:02;;;;;;;16.20;9.95;;;;;;;15.23;100.00;96707.84;4982141;28;20080;-67
2023/06/26 03:13:27;;;;;;;15.40;9.90;;;;;;;15.25;100.00;96711.00;4962867;28;20050;-70
2023/06/26 03:15:52;;;;;;;18.40;10.30;;;;;;;15.31;100.00;96702.31;4984368;28;20058;-68
2023/06/26 03:18:18;;;;;;;15.25;9.80;;;;;;;15.18;100.00;96705.50;4979425;28;20042;-68
2023/06/26 03:20:44;;;;;;;14.23;10.00;;;;;;;15.10;100.00;96701.94;4984349;28;20053;-68
2023/06/26 03:23:09;;;;;;;19.40;11.05;;;;;;;14.86;100.00;96700.00;4978746;28;20121;-70
2023/06/26 03:25:34;;;;;;;14.88;10.65;;;;;;;14.61;100.00;96713.78;4983822;28;20452;-68
2023/06/26 03:28:00;;;;;;;14.60;10.40;;;;;;;14.41;100.00;96710.59;4984695;28;20041;-69
2023/06/26 03:30:25;;;;;;;18.42;10.88;;;;;;;14.56;100.00;96720.44;4979187;28;20395;-69
2023/06/26 03:32:50;;;;;;;15.38;9.80;;;;;;;14.61;100.00;96719.31;4996188;28;20045;-69
2023/06/26 03:35:16;;;;;;;16.75;9.75;;;;;;;14.65;100.00;96728.34;4976193;28;20586;-70
2023/06/26 03:37:41;;;;;;;16.30;10.07;;;;;;;14.80;100.00;96718.13;4983723;28;20042;-70
2023/06/26 03:40:07;;;;;;;16.48;10.43;;;;;;;14.94;100.00;96718.13;4979211;28;20125;-67
2023/06/26 03:42:32;;;;;;;16.20;10.10;;;;;;;15.06;100.00;96722.44;4983140;28;20087;-68
2023/06/26 03:44:58;;;;;;;14.52;9.45;;;;;;;15.14;100.00;96725.97;4983574;28;20400;-70
2023/06/26 03:47:23;;;;;;;12.60;8.90;;;;;;;15.17;100.00;96733.47;4987929;28;20566;-70
2023/06/26 03:49:49;;;;;;;15.63;10.25;;;;;;;15.20;100.00;96732.69;4982660;28;20134;-69
2023/06/26 03:52:14;;;;;;;20.85;10.20;;;;;;;15.08;100.00;96731.13;4978229;28;20045;-70
2023/06/26 03:54:39;;;;;;;16.90;9.63;;;;;;;15.05;100.00;96726.38;4983631;28;20391;-70
2023/06/26 03:57:05;;;;;;;16.50;9.60;;;;;;;15.21;100.00;96731.50;4975975;28;20100;-67
2023/06/26 03:59:30;;;;;;;14.32;9.10;;;;;;;15.31;100.00;96730.69;4972953;28;20053;-70
2023/06/26 04:01:56;;;;;;;16.85;10.25;;;;;;;15.38;100.00;96727.13;4963678;28;20043;-70
2023/06/26 04:04:21;;;;;;;14.75;9.13;;;;;;;15.56;100.00;96727.88;4974362;28;20494;-68
2023/06/26 04:06:47;;;;;;;14.82;9.70;;;;;;;15.73;100.00;96722.69;4967718;28;20047;-71
2023/06/26 04:09:12;;;;;;;16.15;10.10;;;;;;;15.87;100.00;96725.44;4967353;28;20051;-70
2023/06/26 04:11:37;;;;;;;15.68;10.15;;;;;;;16.07;100.00;96730.47;4983397;28;20041;-70
2023/06/26 04:14:03;;;;;;;16.65;10.18;;;;;;;16.19;100.00;96735.56;4978646;28;20121;-66
2023/06/26 04:16:29;;;;;;;15.27;9.88;;;;;;;16.33;100.00;96726.38;4980851;28;20046;-71
2023/06/26 04:18:56;;;;;;;15.50;9.65;;;;;;;16.54;100.00;96731.00;4983541;28;20089;-69
2023/06/26 04:21:24;;;;;;;16.98;9.43;;;;;;;16.78;100.00;96732.00;4977889;28;20651;-70
2023/06/26 04:23:50;;;;;;;13.60;9.18;;;;;;;17.00;100.00;96736.22;4982055;28;20064;-71
2023/06/26 04:26:16;;;;;;;14.35;8.68;;;;;;;17.23;100.00;96736.78;4974652;28;20038;-69
2023/06/26 04:28:43;;;;;;;13.20;8.65;;;;;;;17.36;100.00;96737.88;4982155;28;20045;-68
2023/06/26 04:31:11;;;;;;;16.38;9.43;;;;;;;17.62;100.00;96741.16;4976380;28;20101;-69
2023/06/26 04:33:37;;;;;;;14.80;8.82;;;;;;;17.86;99.76;96742.09;4987848;28;20046;-70
2023/06/26 04:36:03;;;;;;;16.33;9.88;;;;;;;18.24;97.49;96742.03;4980046;28;20054;-66
2023/06/26 04:38:33;;;;;;;12.98;9.02;;;;;;;18.74;93.33;96741.31;4999279;28;20049;-69
2023/06/26 04:41:00;;;;;;;12.35;8.40;;;;;;;19.23;90.68;96749.28;4997156;28;20073;-70
2023/06/26 04:43:26;;;;;;;13.23;9.25;;;;;;;19.71;86.72;96747.25;4959295;28;20447;-70
2023/06/26 04:45:51;;;;;;;14.95;9.63;;;;;;;19.89;84.58;96742.16;4999698;28;20045;-70
2023/06/26 04:48:16;;;;;;;15.65;9.38;;;;;;;20.13;82.83;96758.75;4985171;28;20720;-70
2023/06/26 04:50:42;;;;;;;15.27;9.02;;;;;;;21.11;79.33;96750.59;4984038;28;20081;-69
2023/06/26 04:53:07;;;;;;;12.30;8.45;;;;;;;22.45;71.12;96750.63;4977275;28;20053;-70
2023/06/26 04:55:33;;;;;;;16.50;9.98;;;;;;;23.87;63.57;96754.06;4982500;28;20046;-70
2023/06/26 04:57:58;;;;;;;13.02;8.43;;;;;;;24.72;57.46;96744.50;4969336;28;20103;-69
2023/06/26 05:00:24;;;;;;;13.30;9.13;;;;;;;24.41;56.55;96753.63;4989226;28;20119;-69
2023/06/26 05:03:00;;;;;;;17.55;9.10;;;;;;;24.86;54.44;96753.56;5002640;28;20049;-70
2023/06/26 05:05:29;;;;;;;15.45;9.70;;;;;;;24.69;56.96;96758.66;4996696;28;20128;-71
2023/06/26 05:07:55;;;;;;;13.40;8.55;;;;;;;23.64;58.35;96753.19;4984913;28;20030;-73
2023/06/26 05:10:22;;;;;;;15.02;8.82;;;;;;;24.24;58.94;96753.06;4964248;28;20489;-71
2023/06/26 05:12:47;;;;;;;13.13;8.32;;;;;;;25.75;55.16;96749.88;4944888;28;20043;-71
2023/06/26 05:15:13;;;;;;;11.20;7.75;;;;;;;27.45;48.92;96751.31;4973588;28;20050;-71
2023/06/26 05:17:38;;;;;;;13.00;8.68;;;;;;;28.85;44.54;96757.28;4982252;28;20503;-71
2023/06/26 05:20:05;;;;;;;11.63;7.32;;;;;;;29.73;41.29;96758.28;4980679;28;20049;-68
2023/06/26 05:22:32;;;;;;;12.10;8.30;;;;;;;30.54;38.80;96762.28;4985279;28;20388;-71
2023/06/26 05:25:00;;;;;;;15.88;8.77;;;;;;;30.01;39.59;96763.50;4986240;28;20101;-69
2023/06/26 05:27:26;;;;;;;14.50;9.50;;;;;;;26.41;47.66;96757.00;4980669;28;20105;-69
2023/06/26 05:29:51;;;;;;;14.43;9.63;;;;;;;26.22;49.23;96755.50;4985697;28;20046;-69
2023/06/26 05:32:17;;;;;;;12.82;9.25;;;;;;;26.18;50.76;96758.47;4980988;28;20042;-70
2023/06/26 05:34:47;;;;;;;13.07;9.77;;;;;;;26.07;50.34;96749.75;4971216;28;20054;-69
2023/06/26 05:37:20;;;;;;;12.10;9.57;;;;;;;25.56;51.86;96748.31;4959835;28;20046;-68
2023/06/26 05:39:45;;;;;;;11.45;9.20;;;;;;;26.66;49.72;96750.25;4966026;28;20046;-67
2023/06/26 05:42:11;;;;;;;13.20;9.43;;;;;;;28.14;45.07;96757.81;4968882;28;20100;-69
2023/06/26 05:44:37;;;;;;;11.98;7.80;;;;;;;30.21;41.81;96754.97;4992915;28;20053;-69
2023/06/26 05:47:02;;;;;;;16.67;8.95;;;;;;;30.94;39.93;96760.56;4998922;28;20038;-66
2023/06/26 05:49:28;;;;;;;9.75;7.72;;;;;;;32.17;37.14;96756.06;4993455;28;20104;-70
2023/06/26 05:51:54;;;;;;;13.15;8.50;;;;;;;31.29;38.51;96762.34;5006369;28;20118;-71
2023/06/26 05:54:19;;;;;;;10.43;8.38;;;;;;;32.27;36.98;96763.06;5004378;28;20081;-69
2023/06/26 05:56:46;;;;;;;11.90;8.20;;;;;;;32.68;35.53;96762.63;5006087;28;20069;-69
2023/06/26 05:59:12;;;;;;;13.25;8.80;;;;;;;32.98;35.11;96758.50;4974521;28;20085;-68
2023/06/26 06:01:38;;;;;;;12.50;9.77;;;;;;;34.43;32.47;96755.69;5005013;28;20407;-71
2023/06/26 06:04:03;;;;;;;11.75;8.70;;;;;;;33.44;34.01;96759.97;5001453;28;20046;-66
2023/06/26 06:06:29;;;;;;;9.23;7.55;;;;;;;34.26;33.50;96765.09;5003503;28;20061;-70
2023/06/26 06:08:54;;;;;;;9.90;7.93;;;;;;;34.43;33.10;96764.22;5004814;28;20052;-70
2023/06/26 06:11:20;;;;;;;11.33;8.43;;;;;;;35.01;32.01;96769.75;4998536;28;20053;-69
2023/06/26 06:13:45;;;;;;;10.82;8.00;;;;;;;34.57;32.76;96765.16;5002547;28;20285;-68
2023/06/26 06:16:10;;;;;;;11.23;7.43;;;;;;;34.71;32.36;96763.28;4999940;28;20108;-69
2023/06/26 06:18:36;;;;;;;10.38;7.65;;;;;;;34.58;32.76;96769.56;4992362;28;20058;-68
2023/06/26 06:21:01;;;;;;;9.80;7.47;;;;;;;34.61;32.47;96769.28;4985244;28;20053;-69
2023/06/26 06:23:27;;;;;;;11.52;7.45;;;;;;;34.12;33.52;96768.25;4979340;28;20044;-72
2023/06/26 06:25:52;;;;;;;11.07;7.50;;;;;;;33.59;33.75;96773.88;4983628;28;20084;-69
2023/06/26 06:28:18;;;;;;;12.52;7.68;;;;;;;33.18;34.92;96774.47;4979174;28;20125;-69
2023/06/26 06:30:43;;;;;;;12.82;7.65;;;;;;;34.32;32.11;96767.91;4983557;28;20089;-70
2023/06/26 06:33:08;;;;;;;10.50;6.95;;;;;;;33.43;32.21;96779.06;4978360;28;20129;-70
2023/06/26 06:35:34;;;;;;;11.50;6.47;;;;;;;34.11;31.51;96776.00;4983683;28;20133;-70
2023/06/26 06:37:59;;;;;;;9.93;7.03;;;;;;;35.42;29.43;96771.69;4983538;28;20043;-71
2023/06/26 06:40:25;;;;;;;11.25;6.57;;;;;;;34.96;29.17;96776.25;4978373;28;20042;-69
2023/06/26 06:42:51;;;;;;;12.45;7.15;;;;;;;35.80;29.11;96773.91;4984563;28;20065;-70
2023/06/26 06:45:16;;;;;;;11.48;6.75;;;;;;;36.52;28.30;96771.38;4979136;28;20516;-70
2023/06/26 06:47:42;;;;;;;9.55;7.68;;;;;;;36.59;27.95;96774.91;4984144;28;20120;-70
2023/06/26 06:50:08;;;;;;;9.77;6.97;;;;;;;36.51;28.31;96766.97;4991487;28;20034;-71
2023/06/26 06:52:38;;;;;;;9.65;7.22;;;;;;;36.28;29.09;96777.19;5003271;28;20050;-69
2023/06/26 06:55:08;;;;;;;8.07;6.57;;;;;;;36.47;28.64;96775.09;4999935;28;20152;-67
2023/06/26 06:57:37;;;;;;;11.88;7.03;;;;;;;36.62;28.13;96771.75;5003081;28;20081;-70
2023/06/26 07:00:11;;;;;;;8.93;6.72;;;;;;;37.03;27.40;96772.69;5001479;28;20037;-66
2023/06/26 07:02:42;;;;;;;8.25;6.47;;;;;;;36.69;26.50;96782.56;5002733;28;20057;-71
2023/06/26 07:05:07;;;;;;;8.65;6.30;;;;;;;36.45;27.38;96772.00;4998922;28;20628;-70
2023/06/26 07:07:35;;;;;;;10.60;6.90;;;;;;;35.22;28.75;96777.84;5003596;28;20096;-70
2023/06/26 07:10:02;;;;;;;9.60;6.68;;;;;;;34.39;30.78;96772.25;5003322;28;20534;-67
2023/06/26 07:12:28;;;;;;;9.77;6.97;;;;;;;35.20;29.46;96769.06;4999268;28;20046;-70
2023/06/26 07:14:55;;;;;;;10.63;6.95;;;;;;;34.54;30.77;96769.84;5002584;28;20037;-68
2023/06/26 07:17:21;;;;;;;9.23;6.60;;;;;;;36.17;28.77;96767.44;4994105;28;20390;-68
2023/06/26 07:19:47;;;;;;;9.45;7.30;;;;;;;36.78;28.14;96766.34;4984779;28;20046;-67
2023/06/26 07:22:12;;;;;;;10.38;6.28;;;;;;;36.88;28.02;96770.31;4979153;28;20034;-67
2023/06/26 07:24:37;;;;;;;8.80;6.85;;;;;;;35.56;28.79;96777.50;4983568;28;20353;-67
2023/06/26 07:27:04;;;;;;;10.57;7.75;;;;;;;31.95;34.12;96763.19;4980407;28;20042;-63
2023/06/26 07:29:29;;;;;;;10.05;7.68;;;;;;;32.64;33.53;96773.44;4983358;28;20042;-66
2023/06/26 07:31:54;;;;;;;9.05;6.72;;;;;;;33.50;32.38;96772.09;4982165;28;20074;-67
2023/06/26 07:34:20;;;;;;;10.40;6.18;;;;;;;35.20;30.70;96769.06;4976940;28;20097;-67
2023/06/26 07:36:45;;;;;;;9.80;6.38;;;;;;;36.52;28.49;96771.38;4983393;28;20053;-67
2023/06/26 07:39:11;;;;;;;8.77;7.13;;;;;;;37.29;27.39;96774.84;4978091;28;20161;-65
2023/06/26 07:41:36;;;;;;;8.25;6.45;;;;;;;36.48;28.49;96767.28;4965451;28;20042;-66
2023/06/26 07:44:02;;;;;;;9.48;6.68;;;;;;;37.10;27.72;96766.34;4988141;28;20046;-63
2023/06/26 07:46:28;;;;;;;8.25;7.03;;;;;;;36.75;27.60;96773.91;4999158;28;20454;-69
2023/06/26 07:48:53;;;;;;;9.98;7.32;;;;;;;34.48;30.90;96771.94;4992047;28;20491;-68
2023/06/26 07:51:19;;;;;;;9.95;6.85;;;;;;;34.24;32.17;96772.59;4988653;28;20038;-68
2023/06/26 07:53:45;;;;;;;10.65;6.82;;;;;;;33.94;32.44;96766.78;4982616;28;20083;-67
2023/06/26 07:56:10;;;;;;;13.57;7.90;;;;;;;34.20;34.97;96760.75;4973205;28;20039;-68
2023/06/26 07:58:36;;;;;;;12.32;7.88;;;;;;;34.47;34.48;96765.47;4963568;28;20532;-68
2023/06/26 08:01:01;;;;;;;9.68;7.13;;;;;;;33.60;34.67;96767.69;4962692;28;20042;-68
2023/06/26 08:03:26;;;;;;;10.77;8.02;;;;;;;34.52;34.10;96763.91;4958007;28;20108;-69
2023/06/26 08:05:52;;;;;;;11.43;7.30;;;;;;;34.13;35.25;96769.81;4963256;28;20039;-68
2023/06/26 08:08:17;;;;;;;13.65;8.43;;;;;;;33.19;35.89;96759.78;4958191;28;20124;-69
2023/06/26 08:10:43;;;;;;;12.57;7.85;;;;;;;32.98;37.55;96756.41;4963440;28;20110;-68
2023/06/26 08:13:08;;;;;;;11.77;8.38;;;;;;;33.04;37.31;96748.66;4958344;28;20074;-67
2023/06/26 08:15:34;;;;;;;9.38;6.93;;;;;;;32.43;38.13;96750.22;4964001;28;20051;-68
2023/06/26 08:17:59;;;;;;;12.15;7.63;;;;;;;32.45;37.44;96746.84;4965657;28;20465;-68
2023/06/26 08:20:25;;;;;;;11.80;8.15;;;;;;;32.41;38.57;96740.66;4959130;28;20701;-68
2023/06/26 08:22:52;;;;;;;11.48;7.50;;;;;;;32.70;37.59;96745.06;4973797;28;20038;-68
2023/06/26 08:25:17;;;;;;;14.02;8.63;;;;;;;32.38;38.15;96736.78;4980197;28;20046;-68
2023/06/26 08:27:43;;;;;;;13.52;9.05;;;;;;;30.65;41.26;96739.00;4985181;28;20048;-69
2023/06/26 08:30:09;;;;;;;11.10;8.10;;;;;;;30.39;42.42;96741.81;4980530;28;20038;-68
2023/06/26 08:32:34;;;;;;;15.05;8.30;;;;;;;31.11;40.04;96728.78;4984362;28;20071;-69
2023/06/26 08:35:00;;;;;;;13.13;7.60;;;;;;;30.58;40.24;96736.63;4984188;28;20053;-68
2023/06/26 08:37:25;;;;;;;10.52;7.75;;;;;;;30.03;41.09;96744.78;4977321;28;20046;-68
2023/06/26 08:39:50;;;;;;;11.20;7.95;;;;;;;29.43;40.92;96730.19;4964841;28;20051;-67
2023/06/26 08:42:16;;;;;;;10.23;7.55;;;;;;;30.25;40.21;96737.81;4976843;28;20042;-69
2023/06/26 08:44:42;;;;;;;11.25;6.70;;;;;;;30.45;39.68;96729.31;4982215;28;20034;-68
2023/06/26 08:47:09;;;;;;;11.82;7.55;;;;;;;30.41;40.20;96727.97;4976060;28;20163;-68
2023/06/26 08:49:46;;;;;;;12.80;7.57;;;;;;;30.09;40.55;96725.84;4983036;28;20516;-67
2023/06/26 08:52:20;;;;;;;11.50;8.40;;;;;;;30.93;40.83;96724.31;4986862;28;20041;-67
2023/06/26 08:54:51;;;;;;;9.27;7.40;;;;;;;31.40;38.83;96719.19;4981706;28;20038;-67
2023/06/26 08:57:19;;;;;;;10.85;7.53;;;;;;;31.69;39.41;96726.53;4980809;28;20069;-67
2023/06/26 08:59:46;;;;;;;8.80;7.05;;;;;;;31.68;36.82;96724.22;4982695;28;20046;-68
2023/06/26 09:02:12;;;;;;;8.77;6.30;;;;;;;32.23;36.20;96728.50;4977796;28;20064;-68
2023/06/26 09:04:39;;;;;;;9.10;6.68;;;;;;;31.80;35.92;96728.63;4981521;28;20038;-67
2023/06/26 09:07:04;;;;;;;12.52;7.28;;;;;;;31.55;36.19;96724.69;4976222;28;20488;-65
2023/06/26 09:09:30;;;;;;;11.38;6.80;;;;;;;32.00;36.58;96725.63;4982472;28;20074;-67
2023/06/26 09:11:55;;;;;;;11.80;7.05;;;;;;;32.50;35.06;96726.22;4981276;28;20049;-67
2023/06/26 09:14:21;;;;;;;10.30;6.78;;;;;;;32.13;36.07;96732.88;4977166;28;20424;-67
2023/06/26 09:16:46;;;;;;;9.25;6.95;;;;;;;32.44;34.87;96725.47;4982056;28;20799;-69
2023/06/26 09:19:12;;;;;;;10.45;6.90;;;;;;;32.65;33.80;96729.63;4976767;28;20054;-67
2023/06/26 09:21:42;;;;;;;11.70;6.22;;;;;;;32.92;33.77;96730.91;4981813;28;20563;-67
2023/06/26 09:24:09;;;;;;;9.45;6.68;;;;;;;32.80;32.85;96728.59;4977356;28;20054;-67
2023/06/26 09:26:38;;;;;;;8.95;6.70;;;;;;;33.13;33.05;96725.75;4980724;28;20049;-68
2023/06/26 09:29:08;;;;;;;12.25;7.20;;;;;;;32.86;33.19;96732.19;4977254;28;20129;-65
2023/06/26 09:31:37;;;;;;;8.38;6.90;;;;;;;32.76;33.77;96735.28;4981581;28;20035;-69
2023/06/26 09:34:03;;;;;;;7.23;6.33;;;;;;;32.99;33.88;96721.09;4980241;28;20484;-65
2023/06/26 09:36:33;;;;;;;6.93;6.00;;;;;;;33.30;32.90;96719.25;4961558;28;20098;-66
2023/06/26 09:39:00;;;;;;;10.25;6.72;;;;;;;32.98;33.28;96716.69;4982171;28;20046;-67
2023/06/26 09:41:26;;;;;;;14.43;6.95;;;;;;;32.71;33.98;96715.44;4976703;28;20133;-68
2023/06/26 09:43:51;;;;;;;8.82;6.50;;;;;;;32.88;33.10;96704.88;4981501;28;20125;-67
2023/06/26 09:46:37;;;;;;;8.85;5.97;;;;;;;32.80;33.03;96712.34;4975715;28;20486;-68
2023/06/26 09:49:05;;;;;;;11.65;6.18;;;;;;;33.28;33.13;96716.16;4977370;28;20138;-63
2023/06/26 09:51:32;;;;;;;11.52;6.45;;;;;;;32.47;33.52;96702.53;4989769;28;20074;-70
2023/06/26 09:53:58;;;;;;;9.82;5.97;;;;;;;32.00;33.56;96719.94;4983949;28;20092;-69
2023/06/26 09:56:24;;;;;;;8.27;6.60;;;;;;;32.29;33.16;96711.53;4976404;28;20379;-69
2023/06/26 09:58:49;;;;;;;10.15;6.80;;;;;;;32.24;33.64;96715.91;4982055;28;20046;-67
2023/06/26 10:01:15;;;;;;;8.95;6.22;;;;;;;32.64;33.44;96701.78;4976992;28;20034;-68
2023/06/26 10:03:40;;;;;;;8.52;6.65;;;;;;;31.99;33.33;96694.97;4981544;28;20459;-68
2023/06/26 10:06:08;;;;;;;8.55;6.25;;;;;;;32.69;33.19;96698.19;4975959;28;20046;-66
2023/06/26 10:08:37;;;;;;;7.40;6.40;;;;;;;32.91;32.90;96697.38;4983028;28;20062;-69
2023/06/26 10:11:03;;;;;;;9.65;6.55;;;;;;;32.95;32.89;96703.53;4982692;28;20502;-68
2023/06/26 10:13:34;;;;;;;7.80;5.97;;;;;;;33.28;32.13;96699.13;4964993;28;20043;-69
2023/06/26 10:16:00;;;;;;;8.38;6.47;;;;;;;33.02;32.47;96699.41;4985803;28;20108;-65
2023/06/26 10:18:28;;;;;;;7.53;5.78;;;;;;;33.05;32.32;96706.91;4980603;28;20049;-66
2023/06/26 10:20:56;;;;;;;9.75;5.63;;;;;;;33.10;31.92;96703.28;4985136;28;20152;-68
2023/06/26 10:23:27;;;;;;;7.70;5.95;;;;;;;33.07;31.87;96701.47;4980532;28;20279;-69
2023/06/26 10:25:55;;;;;;;9.30;7.30;;;;;;;32.58;32.61;96707.44;4985079;28;20125;-66
2023/06/26 10:28:22;;;;;;;6.97;4.83;;;;;;;32.53;32.87;96696.84;4980009;28;20042;-67
2023/06/26 10:30:51;;;;;;;8.15;6.00;;;;;;;32.24;32.85;96695.31;4984498;28;20447;-68
2023/06/26 10:33:18;;;;;;;7.85;5.70;;;;;;;32.38;33.29;96694.28;4979736;28;20133;-68
2023/06/26 10:35:45;;;;;;;8.32;5.82;;;;;;;32.43;33.01;96698.41;4983917;28;20089;-68
2023/06/26 10:38:10;;;;;;;8.27;5.53;;;;;;;32.52;33.29;96692.47;4936373;28;20039;-69
2023/06/26 10:40:48;;;;;;;8.88;5.78;;;;;;;32.70;32.01;96694.03;4985086;28;20556;-68
2023/06/26 10:43:14;;;;;;;7.70;6.03;;;;;;;32.88;32.68;96689.91;4979299;28;20053;-68
2023/06/26 10:45:45;;;;;;;9.30;5.82;;;;;;;32.76;32.53;96695.59;4983861;28;20038;-67
2023/06/26 10:48:14;;;;;;;7.72;5.85;;;;;;;32.64;32.56;96681.94;4979092;28;20400;-67
2023/06/26 10:50:39;;;;;;;10.63;5.50;;;;;;;32.38;32.58;96691.44;4991217;28;20034;-68
2023/06/26 10:53:13;;;;;;;7.70;5.53;;;;;;;33.12;31.61;96689.34;4981039;28;20067;-64
2023/06/26 10:55:48;;;;;;;7.10;5.50;;;;;;;33.10;32.00;96689.88;4984540;28;20046;-68
2023/06/26 10:58:50;;;;;;;7.50;5.60;;;;;;;32.33;31.14;96689.38;4979067;28;20042;-68
2023/06/26 11:01:21;;;;;;;9.60;5.50;;;;;;;32.50;32.09;96684.50;4978618;28;20045;-66
2023/06/26 11:03:49;;;;;;;8.98;5.65;;;;;;;32.55;32.46;96680.88;4983729;28;20049;-67
2023/06/26 11:06:19;;;;;;;7.00;5.63;;;;;;;32.69;32.30;96684.75;4978701;28;20066;-69
2023/06/26 11:08:45;;;;;;;;;;;;;;;32.86;31.89;96681.94;4984301;28;20049;-68
2023/06/26 11:11:11;;;;;;;7.53;4.82;;;;;;;32.78;31.96;96683.72;4978622;28;20302;-68
2023/06/26 11:13:37;;;;;;;7.30;5.20;;;;;;;32.87;31.83;96686.28;4983467;28;20117;-67
2023/06/26 11:16:03;;;;;;;9.88;5.32;;;;;;;33.04;31.66;96682.66;4981513;28;20043;-66
2023/06/26 11:18:29;;;;;;;5.93;4.97;;;;;;;33.05;30.07;96684.97;4981029;28;20046;-67
2023/06/26 11:21:04;;;;;;;8.13;5.20;;;;;;;32.61;30.60;96685.78;4983037;28;20042;-68
2023/06/26 11:23:33;;;;;;;7.50;5.32;;;;;;;33.13;30.46;96680.34;4964939;28;20384;-69